Time;durP1;ratioP1;P1;durP2;ratioP2;P2;SDS_P1;SDS_P2;PMS_P1;PMS_P2;Temp;Humidity;BMP_temperature;BMP_pressure;BME280_temperature;BME280_humidity;BME280_pressure;Samples;Min_cycle;Max_cycle;Signal;HPM_P1;HPM_P2
2023/12/05 00:01:51;;;;;;;13.80;8.20;;;;;;;;;;5052206;28;20868;-84
2023/12/05 00:04:17;;;;;;;14.23;8.93;;;;;;;;;;5052146;28;20508;-81
2023/12/05 00:06:43;;;;;;;14.93;8.57;;;;;;;;;;5052202;28;20408;-83
2023/12/05 00:09:11;;;;;;;13.20;8.30;;;;;;;;;;5052095;28;20516;-83
2023/12/05 00:11:39;;;;;;;16.03;9.80;;;;;;;;;;5034016;28;20506;-83
2023/12/05 00:14:05;;;;;;;13.80;9.03;;;;;;;;;;5051917;28;20515;-83
2023/12/05 00:16:31;;;;;;;14.80;8.67;;;;;;;;;;5010907;28;20851;-83
2023/12/05 00:18:57;;;;;;;15.17;9.93;;;;;;;;;;5051809;28;20506;-84
2023/12/05 00:21:24;;;;;;;14.83;9.83;;;;;;;;;;5034403;28;20507;-84
2023/12/05 00:23:50;;;;;;;17.13;8.07;;;;;;;;;;5051982;28;20482;-82
2023/12/05 00:26:16;;;;;;;18.83;10.00;;;;;;;;;;5051742;28;20399;-83
2023/12/05 00:28:42;;;;;;;13.33;8.87;;;;;;;;;;5051902;28;20416;-82
2023/12/05 00:31:08;;;;;;;8.23;5.80;;;;;;;;;;5051288;28;20513;-82
2023/12/05 00:33:34;;;;;;;14.10;9.00;;;;;;;;;;5045196;28;21015;-83
2023/12/05 00:36:00;;;;;;;17.70;10.20;;;;;;;;;;5064672;28;20425;-82
2023/12/05 00:38:26;;;;;;;10.30;7.67;;;;;;;;;;5017927;28;20834;-82
2023/12/05 00:40:52;;;;;;;14.37;8.23;;;;;;;;;;5064373;28;20450;-82
2023/12/05 00:43:18;;;;;;;15.43;8.97;;;;;;;;;;5075260;28;20612;-82
2023/12/05 00:45:44;;;;;;;13.70;8.87;;;;;;;;;;5044107;28;20464;-82
2023/12/05 00:48:09;;;;;;;15.90;10.57;;;;;;;;;;5055367;28;20752;-82
2023/12/05 00:50:35;;;;;;;14.90;9.57;;;;;;;;;;5037506;28;20469;-82
2023/12/05 00:53:01;;;;;;;12.80;9.13;;;;;;;;;;5037537;28;20516;-82
2023/12/05 00:55:27;;;;;;;15.20;9.10;;;;;;;;;;5037543;28;21002;-82
2023/12/05 00:57:54;;;;;;;12.03;7.77;;;;;;;;;;5054888;28;20510;-82
2023/12/05 01:00:20;;;;;;;14.03;9.70;;;;;;;;;;5055125;28;20988;-82
2023/12/05 01:02:46;;;;;;;16.50;11.23;;;;;;;;;;5072208;28;20463;-82
2023/12/05 01:05:12;;;;;;;16.53;10.10;;;;;;;;;;5075060;28;20440;-82
2023/12/05 01:07:38;;;;;;;18.50;7.90;;;;;;;;;;5075108;28;20399;-82
2023/12/05 01:10:04;;;;;;;10.73;7.17;;;;;;;;;;5075054;28;20437;-82
2023/12/05 01:12:30;;;;;;;15.10;9.20;;;;;;;;;;5074642;28;20405;-81
2023/12/05 01:14:59;;;;;;;13.20;7.90;;;;;;;;;;5074740;28;20947;-82
2023/12/05 01:17:25;;;;;;;13.10;8.40;;;;;;;;;;5074869;28;20403;-82
2023/12/05 01:19:51;;;;;;;14.77;9.77;;;;;;;;;;5070215;28;21416;-81
2023/12/05 01:22:17;;;;;;;13.93;8.90;;;;;;;;;;5054557;28;20416;-81
2023/12/05 01:24:43;;;;;;;15.57;10.57;;;;;;;;;;5054675;28;20933;-82
2023/12/05 01:27:08;;;;;;;12.50;9.40;;;;;;;;;;5054240;28;20407;-81
2023/12/05 01:29:34;;;;;;;11.10;7.20;;;;;;;;;;5054382;28;20510;-81
2023/12/05 01:32:00;;;;;;;17.27;9.67;;;;;;;;;;5054607;28;20408;-81
2023/12/05 01:34:26;;;;;;;11.80;8.10;;;;;;;;;;5054521;28;20423;-81
2023/12/05 01:36:52;;;;;;;13.90;9.00;;;;;;;;;;5054534;28;20447;-81
2023/12/05 01:39:18;;;;;;;13.87;8.03;;;;;;;;;;5054546;28;20424;-81
2023/12/05 01:41:44;;;;;;;15.00;9.10;;;;;;;;;;5053936;28;20766;-81
2023/12/05 01:44:10;;;;;;;13.70;9.30;;;;;;;;;;5053888;28;20470;-81
2023/12/05 01:46:36;;;;;;;14.93;9.60;;;;;;;;;;5036261;28;20891;-81
2023/12/05 01:49:02;;;;;;;11.60;7.93;;;;;;;;;;5054339;28;20481;-81
2023/12/05 01:51:29;;;;;;;16.73;8.83;;;;;;;;;;5054284;28;20420;-81
2023/12/05 01:53:55;;;;;;;11.17;7.90;;;;;;;;;;5054016;28;20480;-82
2023/12/05 01:56:22;;;;;;;17.83;10.00;;;;;;;;;;5053803;28;20450;-81
2023/12/05 01:58:48;;;;;;;11.97;7.73;;;;;;;;;;5036128;28;20971;-81
2023/12/05 02:01:15;;;;;;;12.27;9.07;;;;;;;;;;5054073;28;20495;-81
2023/12/05 02:03:43;;;;;;;15.90;9.97;;;;;;;;;;5053836;28;20478;-81
2023/12/05 02:06:10;;;;;;;17.20;9.63;;;;;;;;;;5036085;28;20429;-81
2023/12/05 02:08:36;;;;;;;17.10;10.17;;;;;;;;;;5053956;28;20757;-81
2023/12/05 02:11:02;;;;;;;13.77;9.00;;;;;;;;;;5053180;28;20415;-81
2023/12/05 02:13:28;;;;;;;14.87;8.33;;;;;;;;;;5053771;28;20423;-80
2023/12/05 02:16:00;;;;;;;13.10;9.20;;;;;;;;;;5021443;28;20440;-80
2023/12/05 02:18:29;;;;;;;14.90;10.70;;;;;;;;;;5073585;28;20769;-81
2023/12/05 02:20:57;;;;;;;14.30;8.90;;;;;;;;;;5058486;28;20426;-81
2023/12/05 02:23:38;;;;;;;13.30;7.97;;;;;;;;;;5053247;28;20460;-81
2023/12/05 02:26:14;;;;;;;15.70;10.00;;;;;;;;;;5035461;28;20430;-81
2023/12/05 02:28:40;;;;;;;15.43;9.67;;;;;;;;;;5053474;28;20404;-81
2023/12/05 02:31:06;;;;;;;20.83;10.70;;;;;;;;;;5053301;28;20859;-81
2023/12/05 02:33:32;;;;;;;14.90;10.10;;;;;;;;;;5053329;28;20408;-81
2023/12/05 02:36:01;;;;;;;19.70;11.40;;;;;;;;;;5053237;28;20525;-81
2023/12/05 02:38:32;;;;;;;14.27;8.67;;;;;;;;;;5053203;28;20502;-82
2023/12/05 02:41:18;;;;;;;14.87;8.63;;;;;;;;;;5035069;28;20504;-82
2023/12/05 02:43:50;;;;;;;16.60;10.40;;;;;;;;;;5052847;28;20470;-82
2023/12/05 02:46:20;;;;;;;17.20;10.83;;;;;;;;;;5053122;28;20732;-82
2023/12/05 02:48:46;;;;;;;16.63;10.03;;;;;;;;;;5053115;28;20412;-82
2023/12/05 02:51:12;;;;;;;12.40;9.27;;;;;;;;;;5053169;28;20449;-82
2023/12/05 02:53:38;;;;;;;26.83;12.40;;;;;;;;;;5052944;28;20504;-82
2023/12/05 02:56:04;;;;;;;19.20;11.40;;;;;;;;;;5034023;28;20994;-82
2023/12/05 02:58:30;;;;;;;16.80;11.97;;;;;;;;;;5034860;28;20428;-82
2023/12/05 03:00:56;;;;;;;14.30;10.53;;;;;;;;;;5052973;28;20411;-82
2023/12/05 03:03:22;;;;;;;16.80;11.00;;;;;;;;;;5052479;28;20474;-82
2023/12/05 03:05:48;;;;;;;14.23;9.10;;;;;;;;;;5052456;28;20409;-83
2023/12/05 03:08:14;;;;;;;17.57;10.40;;;;;;;;;;5052741;28;20409;-82
2023/12/05 03:10:40;;;;;;;19.53;12.10;;;;;;;;;;5052428;28;20404;-82
2023/12/05 03:13:06;;;;;;;17.83;12.83;;;;;;;;;;5034990;28;20975;-83
2023/12/05 03:15:31;;;;;;;18.53;12.70;;;;;;;;;;5035002;28;20476;-82
2023/12/05 03:17:57;;;;;;;15.80;10.23;;;;;;;;;;5052628;28;20412;-82
2023/12/05 03:20:24;;;;;;;21.37;12.70;;;;;;;;;;5052666;28;20412;-82
2023/12/05 03:22:50;;;;;;;19.43;13.30;;;;;;;;;;5052492;28;20478;-82
2023/12/05 03:25:16;;;;;;;19.87;12.90;;;;;;;;;;5034411;28;20412;-82
2023/12/05 03:27:42;;;;;;;21.73;13.33;;;;;;;;;;5052483;28;20404;-82
2023/12/05 03:30:08;;;;;;;20.20;12.80;;;;;;;;;;5052222;28;20856;-82
2023/12/05 03:32:34;;;;;;;23.00;13.03;;;;;;;;;;5052608;28;20503;-82
2023/12/05 03:35:00;;;;;;;23.70;13.80;;;;;;;;;;5052582;28;20441;-81
2023/12/05 03:37:26;;;;;;;18.67;12.67;;;;;;;;;;5052377;28;20407;-82
2023/12/05 03:39:52;;;;;;;20.83;12.63;;;;;;;;;;5052267;28;20788;-82
2023/12/05 03:42:17;;;;;;;22.20;13.17;;;;;;;;;;5034147;28;20458;-81
2023/12/05 03:44:46;;;;;;;21.13;13.40;;;;;;;;;;5052400;28;20566;-81
2023/12/05 03:47:12;;;;;;;21.60;14.17;;;;;;;;;;5052322;28;20558;-82
2023/12/05 03:49:38;;;;;;;15.43;11.20;;;;;;;;;;5052256;28;20419;-81
2023/12/05 03:52:04;;;;;;;21.13;14.43;;;;;;;;;;5052318;28;20408;-81
2023/12/05 03:54:31;;;;;;;21.10;11.87;;;;;;;;;;5034372;28;20427;-81
2023/12/05 03:56:57;;;;;;;17.63;11.30;;;;;;;;;;5051944;28;20426;-81
2023/12/05 03:59:25;;;;;;;16.30;9.53;;;;;;;;;;5034321;28;20457;-82
2023/12/05 04:01:51;;;;;;;21.77;14.47;;;;;;;;;;5052075;28;20825;-81
2023/12/05 04:04:17;;;;;;;19.00;13.40;;;;;;;;;;5052077;28;20476;-81
2023/12/05 04:06:43;;;;;;;19.63;13.07;;;;;;;;;;5052244;28;20407;-82
2023/12/05 04:09:09;;;;;;;25.13;15.70;;;;;;;;;;5055274;28;20920;-82
2023/12/05 04:11:35;;;;;;;21.50;14.37;;;;;;;;;;5055774;28;20408;-82
2023/12/05 04:14:01;;;;;;;26.90;16.10;;;;;;;;;;5038161;28;20447;-81
2023/12/05 04:16:27;;;;;;;23.60;15.37;;;;;;;;;;5038144;28;20442;-82
2023/12/05 04:18:54;;;;;;;24.07;14.60;;;;;;;;;;5055958;28;20842;-82
2023/12/05 04:21:20;;;;;;;20.20;11.97;;;;;;;;;;5030385;28;21121;-82
2023/12/05 04:23:46;;;;;;;22.87;16.90;;;;;;;;;;5043087;28;20475;-82
2023/12/05 04:26:17;;;;;;;28.97;15.97;;;;;;;;;;5055513;28;20769;-81
2023/12/05 04:28:43;;;;;;;25.60;16.70;;;;;;;;;;5037659;28;20427;-82
2023/12/05 04:31:09;;;;;;;18.10;13.10;;;;;;;;;;5054136;28;20928;-82
2023/12/05 04:33:35;;;;;;;26.70;16.47;;;;;;;;;;5054789;28;20420;-82
2023/12/05 04:36:01;;;;;;;22.27;14.70;;;;;;;;;;5055022;28;20405;-83
2023/12/05 04:38:30;;;;;;;24.63;15.10;;;;;;;;;;5054197;28;20942;-82
2023/12/05 04:40:55;;;;;;;23.60;12.17;;;;;;;;;;5054996;28;20919;-82
2023/12/05 04:43:21;;;;;;;23.17;14.30;;;;;;;;;;5037206;28;20548;-82
2023/12/05 04:45:47;;;;;;;26.83;16.83;;;;;;;;;;5055147;28;20488;-82
2023/12/05 04:48:13;;;;;;;18.57;11.73;;;;;;;;;;5055208;28;20903;-82
2023/12/05 04:50:39;;;;;;;28.43;17.47;;;;;;;;;;5055190;28;20408;-83
2023/12/05 04:53:05;;;;;;;30.80;16.10;;;;;;;;;;5055096;28;20407;-82
2023/12/05 04:55:31;;;;;;;22.37;15.07;;;;;;;;;;5036982;28;20412;-82
2023/12/05 04:57:57;;;;;;;22.77;15.30;;;;;;;;;;5037206;28;20794;-82
2023/12/05 05:00:23;;;;;;;25.47;17.07;;;;;;;;;;5055076;28;20404;-81
2023/12/05 05:02:49;;;;;;;28.43;17.43;;;;;;;;;;5052269;28;20469;-81
2023/12/05 05:05:15;;;;;;;22.37;14.60;;;;;;;;;;5054971;28;20416;-81
2023/12/05 05:07:40;;;;;;;23.23;16.33;;;;;;;;;;5054944;28;20919;-81
2023/12/05 05:10:10;;;;;;;25.30;15.07;;;;;;;;;;5054528;28;20423;-82
2023/12/05 05:12:36;;;;;;;27.30;15.50;;;;;;;;;;5054763;28;20868;-82
2023/12/05 05:15:02;;;;;;;30.27;16.50;;;;;;;;;;5054749;28;20422;-81
2023/12/05 05:17:27;;;;;;;26.83;17.40;;;;;;;;;;5054627;28;20751;-82
2023/12/05 05:19:53;;;;;;;22.77;15.20;;;;;;;;;;5053627;28;20534;-82
2023/12/05 05:22:19;;;;;;;25.77;14.27;;;;;;;;;;5054703;28;20404;-82
2023/12/05 05:24:45;;;;;;;27.00;16.23;;;;;;;;;;5054468;28;20475;-82
2023/12/05 05:27:12;;;;;;;26.27;16.37;;;;;;;;;;5054273;28;20412;-82
2023/12/05 05:29:38;;;;;;;26.20;17.20;;;;;;;;;;5054385;28;20419;-82
2023/12/05 05:32:06;;;;;;;23.20;15.60;;;;;;;;;;5054472;28;20404;-82
2023/12/05 05:34:32;;;;;;;27.77;18.20;;;;;;;;;;5054905;28;20765;-82
2023/12/05 05:36:58;;;;;;;26.13;17.13;;;;;;;;;;5054957;28;20502;-82
2023/12/05 05:39:24;;;;;;;29.00;17.83;;;;;;;;;;5054850;28;20412;-82
2023/12/05 05:41:50;;;;;;;26.57;15.27;;;;;;;;;;5054391;28;20892;-81
2023/12/05 05:44:16;;;;;;;27.77;15.83;;;;;;;;;;5054657;28;20464;-83
2023/12/05 05:46:42;;;;;;;27.07;17.63;;;;;;;;;;5036750;28;20435;-83
2023/12/05 05:49:08;;;;;;;24.30;16.60;;;;;;;;;;5054676;28;20896;-82
2023/12/05 05:51:34;;;;;;;27.37;16.77;;;;;;;;;;5036686;28;20932;-83
2023/12/05 05:54:00;;;;;;;29.33;15.80;;;;;;;;;;5054498;28;20463;-82
2023/12/05 05:56:26;;;;;;;23.40;15.30;;;;;;;;;;5054118;28;20408;-83
2023/12/05 05:58:52;;;;;;;29.93;18.50;;;;;;;;;;5054373;28;20413;-82
2023/12/05 06:01:18;;;;;;;28.00;18.47;;;;;;;;;;5054226;28;20416;-83
2023/12/05 06:03:44;;;;;;;25.67;15.60;;;;;;;;;;5036321;28;20522;-83
2023/12/05 06:06:10;;;;;;;28.47;18.17;;;;;;;;;;5036519;28;20412;-83
2023/12/05 06:08:36;;;;;;;30.53;18.73;;;;;;;;;;5036146;28;20928;-82
2023/12/05 06:11:02;;;;;;;25.50;15.03;;;;;;;;;;5053984;28;20418;-83
2023/12/05 06:13:28;;;;;;;27.97;16.10;;;;;;;;;;5054249;28;20416;-82
2023/12/05 06:15:54;;;;;;;31.17;18.03;;;;;;;;;;5021264;28;20420;-80
2023/12/05 06:18:20;;;;;;;23.90;14.13;;;;;;;;;;5046216;28;20423;-82
2023/12/05 06:20:46;;;;;;;24.27;15.80;;;;;;;;;;5056167;28;20936;-82
2023/12/05 06:23:12;;;;;;;32.97;18.87;;;;;;;;;;5064946;28;20933;-81
2023/12/05 06:25:39;;;;;;;27.30;17.90;;;;;;;;;;5073383;28;20503;-81
2023/12/05 06:28:08;;;;;;;28.80;18.70;;;;;;;;;;5073803;28;20429;-81
2023/12/05 06:30:37;;;;;;;31.43;17.30;;;;;;;;;;5073350;28;20552;-81
2023/12/05 06:33:03;;;;;;;24.77;17.60;;;;;;;;;;5073744;28;20420;-81
2023/12/05 06:35:32;;;;;;;29.37;16.60;;;;;;;;;;5055760;28;20437;-81
2023/12/05 06:37:57;;;;;;;25.23;18.20;;;;;;;;;;5073511;28;20411;-81
2023/12/05 06:40:23;;;;;;;32.27;17.50;;;;;;;;;;5073172;28;20411;-81
2023/12/05 06:42:50;;;;;;;25.10;16.43;;;;;;;;;;5073488;28;20422;-81
2023/12/05 06:45:18;;;;;;;30.50;18.03;;;;;;;;;;5073604;28;20419;-81
2023/12/05 06:47:44;;;;;;;36.43;19.80;;;;;;;;;;5073220;28;20409;-80
2023/12/05 06:50:11;;;;;;;29.20;18.00;;;;;;;;;;5061656;28;20518;-81
2023/12/05 06:52:40;;;;;;;31.37;18.67;;;;;;;;;;5033305;28;20461;-82
2023/12/05 06:55:07;;;;;;;28.43;17.60;;;;;;;;;;5015168;28;20876;-82
2023/12/05 06:57:33;;;;;;;18.80;12.43;;;;;;;;;;5033640;28;20516;-82
2023/12/05 06:59:59;;;;;;;33.67;18.70;;;;;;;;;;5033329;28;20564;-81
2023/12/05 07:02:25;;;;;;;28.57;18.50;;;;;;;;;;5033281;28;20507;-81
2023/12/05 07:04:51;;;;;;;30.27;17.40;;;;;;;;;;5033162;28;20551;-81
2023/12/05 07:07:16;;;;;;;27.33;17.93;;;;;;;;;;5037791;28;20623;-82
2023/12/05 07:09:43;;;;;;;24.97;18.03;;;;;;;;;;5072766;28;20782;-82
2023/12/05 07:12:09;;;;;;;27.27;17.97;;;;;;;;;;5073159;28;20421;-82
2023/12/05 07:14:35;;;;;;;29.53;18.40;;;;;;;;;;5055061;28;20429;-82
2023/12/05 07:17:02;;;;;;;26.40;17.50;;;;;;;;;;5073012;28;20440;-82
2023/12/05 07:19:31;;;;;;;28.27;18.10;;;;;;;;;;5072965;28;20928;-82
2023/12/05 07:21:57;;;;;;;29.20;18.80;;;;;;;;;;5073070;28;20776;-82
2023/12/05 07:24:22;;;;;;;28.10;18.27;;;;;;;;;;5054898;28;20592;-82
2023/12/05 07:26:48;;;;;;;32.30;20.67;;;;;;;;;;5040573;28;20433;-81
2023/12/05 07:29:14;;;;;;;29.67;19.97;;;;;;;;;;5040453;28;20503;-82
2023/12/05 07:31:40;;;;;;;30.90;20.93;;;;;;;;;;5034791;28;20464;-82
2023/12/05 07:34:06;;;;;;;27.50;19.53;;;;;;;;;;5052906;28;20433;-82
2023/12/05 07:36:32;;;;;;;27.17;17.40;;;;;;;;;;5052954;28;20837;-83
2023/12/05 07:38:59;;;;;;;29.10;19.87;;;;;;;;;;5035241;28;20769;-82
2023/12/05 07:41:25;;;;;;;29.70;19.53;;;;;;;;;;5052513;28;20919;-82
2023/12/05 07:43:50;;;;;;;30.40;18.30;;;;;;;;;;5055242;28;20525;-83
2023/12/05 07:46:17;;;;;;;31.80;22.30;;;;;;;;;;5056964;28;20519;-83
2023/12/05 07:48:42;;;;;;;31.13;20.77;;;;;;;;;;5057030;28;20399;-82
2023/12/05 07:51:09;;;;;;;31.17;20.67;;;;;;;;;;5056876;28;20415;-83
2023/12/05 07:53:34;;;;;;;30.93;19.13;;;;;;;;;;5056778;28;20407;-82
2023/12/05 07:56:00;;;;;;;35.93;21.20;;;;;;;;;;5056440;28;20417;-83
2023/12/05 07:58:26;;;;;;;25.57;15.27;;;;;;;;;;5056657;28;20409;-83
2023/12/05 08:00:52;;;;;;;22.53;15.97;;;;;;;;;;5056449;28;20412;-86
2023/12/05 08:03:18;;;;;;;26.00;15.70;;;;;;;;;;5056325;28;20972;-84
2023/12/05 08:05:44;;;;;;;31.07;20.10;;;;;;;;;;5056537;28;20426;-82
2023/12/05 08:08:16;;;;;;;40.90;24.90;;;;;;;;;;5063282;28;20808;-86
2023/12/05 08:10:42;;;;;;;34.43;20.27;;;;;;;;;;5070691;28;20906;-82
2023/12/05 08:13:08;;;;;;;41.47;26.60;;;;;;;;;;5056284;28;20409;-83
2023/12/05 08:15:34;;;;;;;30.30;20.10;;;;;;;;;;5072500;28;20421;-81
2023/12/05 08:18:00;;;;;;;27.70;18.37;;;;;;;;;;5076352;28;20410;-82
2023/12/05 08:20:25;;;;;;;33.33;21.17;;;;;;;;;;5074689;28;20414;-80
2023/12/05 08:22:51;;;;;;;34.33;20.17;;;;;;;;;;5055504;28;20418;-81
2023/12/05 08:25:17;;;;;;;32.87;20.17;;;;;;;;;;5056313;28;20419;-82
2023/12/05 08:27:43;;;;;;;35.17;21.30;;;;;;;;;;5057622;28;20412;-82
2023/12/05 08:30:09;;;;;;;33.97;21.07;;;;;;;;;;5014092;28;20456;-83
2023/12/05 08:32:35;;;;;;;29.57;19.37;;;;;;;;;;5055619;28;20414;-83
2023/12/05 08:35:01;;;;;;;32.60;19.37;;;;;;;;;;5037419;28;20522;-84
2023/12/05 08:37:27;;;;;;;29.70;19.67;;;;;;;;;;5037274;28;20421;-84
2023/12/05 08:39:53;;;;;;;33.77;20.43;;;;;;;;;;5055029;28;20504;-84
2023/12/05 08:42:19;;;;;;;28.03;18.77;;;;;;;;;;5055290;28;20501;-83
2023/12/05 08:44:45;;;;;;;32.27;21.67;;;;;;;;;;5055141;28;20480;-83
2023/12/05 08:47:13;;;;;;;32.67;20.07;;;;;;;;;;5038782;28;20420;-82
2023/12/05 08:49:39;;;;;;;36.23;23.67;;;;;;;;;;5038697;28;20421;-82
2023/12/05 08:52:05;;;;;;;31.60;20.30;;;;;;;;;;5055119;28;20495;-81
2023/12/05 08:54:31;;;;;;;35.20;21.40;;;;;;;;;;5054720;28;20425;-80
2023/12/05 08:56:57;;;;;;;38.07;23.80;;;;;;;;;;5055086;28;20924;-83
2023/12/05 08:59:23;;;;;;;25.53;17.87;;;;;;;;;;5055324;28;20822;-82
2023/12/05 09:01:49;;;;;;;32.40;21.97;;;;;;;;;;5055431;28;20499;-83
2023/12/05 09:04:15;;;;;;;35.40;20.90;;;;;;;;;;5055432;28;20463;-81
2023/12/05 09:06:42;;;;;;;37.40;21.57;;;;;;;;;;5055398;28;20904;-83
2023/12/05 09:09:08;;;;;;;37.43;21.23;;;;;;;;;;5055391;28;20416;-82
2023/12/05 09:11:35;;;;;;;32.33;20.77;;;;;;;;;;5054998;28;20460;-83
2023/12/05 09:14:01;;;;;;;29.83;21.00;;;;;;;;;;5055291;28;20430;-82
2023/12/05 09:16:27;;;;;;;33.50;21.17;;;;;;;;;;5055324;28;20411;-81
2023/12/05 09:18:53;;;;;;;27.60;20.63;;;;;;;;;;5055202;28;20423;-81
2023/12/05 09:21:19;;;;;;;37.60;22.60;;;;;;;;;;5037318;28;20416;-80
2023/12/05 09:23:44;;;;;;;33.50;20.57;;;;;;;;;;5037159;28;20476;-80
2023/12/05 09:26:10;;;;;;;30.10;19.80;;;;;;;;;;5054718;28;20411;-79
2023/12/05 09:28:36;;;;;;;32.97;20.83;;;;;;;;;;5054947;28;20415;-82
2023/12/05 09:31:02;;;;;;;27.33;18.87;;;;;;;;;;5054757;28;20470;-80
2023/12/05 09:33:28;;;;;;;33.33;21.07;;;;;;;;;;5037129;28;20428;-82
2023/12/05 09:35:54;;;;;;;35.40;23.50;;;;;;;;;;5054524;28;20416;-80
2023/12/05 09:38:23;;;;;;;35.10;21.40;;;;;;;;;;5060198;28;20343;-84
2023/12/05 09:40:51;;;;;;;28.60;20.77;;;;;;;;;;5009306;28;20451;-78
2023/12/05 09:43:20;;;;;;;30.50;19.33;;;;;;;;;;5037065;28;20464;-82
2023/12/05 09:45:47;;;;;;;34.53;19.67;;;;;;;;;;5034323;28;20424;-84
2023/12/05 09:48:15;;;;;;;32.00;21.73;;;;;;;;;;5034435;28;20528;-84
2023/12/05 09:50:41;;;;;;;32.83;22.60;;;;;;;;;;5030157;28;20440;-82
2023/12/05 09:53:09;;;;;;;35.10;21.30;;;;;;;;;;5013646;28;20424;-83
2023/12/05 09:55:35;;;;;;;35.73;22.70;;;;;;;;;;5033521;28;20413;-83
2023/12/05 09:58:02;;;;;;;37.93;22.70;;;;;;;;;;5034442;28;20918;-82
2023/12/05 10:00:28;;;;;;;34.77;22.30;;;;;;;;;;5015874;28;20882;-83
2023/12/05 10:02:55;;;;;;;31.37;20.87;;;;;;;;;;5020091;28;20432;-81
2023/12/05 10:05:21;;;;;;;28.10;19.57;;;;;;;;;;5026850;28;20426;-79
2023/12/05 10:07:48;;;;;;;24.23;17.67;;;;;;;;;;5033898;28;20436;-79
2023/12/05 10:10:14;;;;;;;31.87;21.10;;;;;;;;;;5033554;28;20417;-82
2023/12/05 10:12:41;;;;;;;30.67;19.17;;;;;;;;;;5033736;28;20427;-83
2023/12/05 10:15:07;;;;;;;32.03;21.17;;;;;;;;;;5033102;28;20504;-82
2023/12/05 10:17:34;;;;;;;28.53;18.90;;;;;;;;;;5031407;28;20416;-83
2023/12/05 10:20:00;;;;;;;40.33;24.23;;;;;;;;;;5033201;28;20452;-83
2023/12/05 10:22:26;;;;;;;33.13;21.83;;;;;;;;;;5033593;28;20462;-81
2023/12/05 10:24:54;;;;;;;33.00;22.20;;;;;;;;;;5017048;28;20569;-83
2023/12/05 10:27:20;;;;;;;29.90;20.53;;;;;;;;;;5033941;28;20467;-82
2023/12/05 10:29:46;;;;;;;35.90;22.27;;;;;;;;;;5016138;28;20976;-82
2023/12/05 10:32:13;;;;;;;35.85;25.70;;;;;;;;;;5031750;28;20433;-84
2023/12/05 10:34:56;;;;;;;31.40;20.47;;;;;;;;;;5031790;28;20193;-84
2023/12/05 10:37:26;;;;;;;29.93;19.03;;;;;;;;;;5033818;28;20412;-84
2023/12/05 10:39:53;;;;;;;29.93;21.10;;;;;;;;;;5033372;28;20480;-84
2023/12/05 10:42:20;;;;;;;30.30;17.10;;;;;;;;;;4992716;28;20428;-84
2023/12/05 10:44:46;;;;;;;30.83;22.70;;;;;;;;;;5032903;28;20534;-83
2023/12/05 10:47:12;;;;;;;35.87;21.47;;;;;;;;;;5033732;28;20413;-84
2023/12/05 10:49:41;;;;;;;29.90;20.33;;;;;;;;;;5033122;28;20473;-83
2023/12/05 10:52:08;;;;;;;33.55;22.65;;;;;;;;;;5032622;28;20933;-82
2023/12/05 10:54:34;;;;;;;34.40;21.17;;;;;;;;;;5032683;28;20173;-80
2023/12/05 10:57:00;;;;;;;31.40;20.40;;;;;;;;;;5032884;28;20756;-83
2023/12/05 10:59:27;;;;;;;33.90;20.77;;;;;;;;;;5032936;28;20418;-82
2023/12/05 11:01:55;;;;;;;33.65;22.65;;;;;;;;;;5029308;28;20412;-83
2023/12/05 11:04:21;;;;;;;36.27;21.13;;;;;;;;;;5032756;28;20616;-84
2023/12/05 11:06:47;;;;;;;28.00;18.60;;;;;;;;;;5033065;28;20442;-80
2023/12/05 11:09:13;;;;;;;29.83;19.70;;;;;;;;;;5032617;28;20362;-83
2023/12/05 11:11:40;;;;;;;35.13;20.40;;;;;;;;;;5033074;28;20573;-83
2023/12/05 11:14:09;;;;;;;32.60;20.30;;;;;;;;;;5033055;28;20751;-83
2023/12/05 11:16:36;;;;;;;30.97;19.60;;;;;;;;;;5038150;28;20450;-80
2023/12/05 11:19:12;;;;;;;30.57;20.83;;;;;;;;;;5052178;28;20497;-81
2023/12/05 11:21:53;;;;;;;26.37;19.37;;;;;;;;;;5052955;28;20410;-84
2023/12/05 11:24:28;;;;;;;29.43;19.20;;;;;;;;;;5052381;28;20473;-84
2023/12/05 11:26:57;;;;;;;34.20;22.00;;;;;;;;;;5052406;28;20411;-83
2023/12/05 11:29:44;;;;;;;31.93;19.27;;;;;;;;;;5052736;28;20173;-84
2023/12/05 11:32:36;;;;;;;31.67;20.00;;;;;;;;;;5052548;28;20463;-85
2023/12/05 11:35:21;;;;;;;34.17;21.80;;;;;;;;;;5014494;28;20494;-82
2023/12/05 11:38:05;;;;;;;30.73;19.63;;;;;;;;;;5052755;28;20416;-84
2023/12/05 11:40:31;;;;;;;28.40;19.27;;;;;;;;;;5052218;28;20460;-85
2023/12/05 11:43:04;;;;;;;30.70;20.57;;;;;;;;;;5020160;28;20905;-79
2023/12/05 11:45:29;;;;;;;25.37;16.87;;;;;;;;;;5028748;28;20421;-84
2023/12/05 11:47:58;;;;;;;28.57;20.83;;;;;;;;;;5052720;28;20407;-85
2023/12/05 11:50:24;;;;;;;33.00;19.83;;;;;;;;;;5052478;28;20949;-85
2023/12/05 11:52:50;;;;;;;26.90;18.47;;;;;;;;;;5052371;28;20436;-86
2023/12/05 11:55:15;;;;;;;31.30;21.03;;;;;;;;;;5052178;28;20445;-84
2023/12/05 11:57:41;;;;;;;29.93;19.80;;;;;;;;;;5052370;28;20487;-81
2023/12/05 12:00:10;;;;;;;30.90;19.23;;;;;;;;;;5052528;28;20415;-84
2023/12/05 12:02:41;;;;;;;31.63;19.00;;;;;;;;;;5052446;28;20915;-81
2023/12/05 12:05:08;;;;;;;30.15;19.45;;;;;;;;;;5052128;28;20895;-82
2023/12/05 12:07:52;;;;;;;30.63;20.70;;;;;;;;;;5052486;28;20170;-81
2023/12/05 12:10:18;;;;;;;26.50;18.53;;;;;;;;;;5051927;28;20495;-83
2023/12/05 12:12:45;;;;;;;33.37;21.67;;;;;;;;;;5038706;28;20508;-85
2023/12/05 12:15:15;;;;;;;29.10;19.80;;;;;;;;;;5032325;28;21004;-84
2023/12/05 12:17:44;;;;;;;29.97;19.77;;;;;;;;;;5032208;28;20420;-85
2023/12/05 12:20:11;;;;;;;24.93;18.00;;;;;;;;;;5047767;28;20412;-83
2023/12/05 12:22:37;;;;;;;29.95;20.42;;;;;;;;;;5051525;28;20926;-85
2023/12/05 12:25:05;;;;;;;34.47;21.83;;;;;;;;;;5033876;28;20210;-84
2023/12/05 12:27:34;;;;;;;33.70;20.97;;;;;;;;;;5052151;28;20415;-85
2023/12/05 12:30:03;;;;;;;32.40;19.67;;;;;;;;;;5035644;28;20479;-85
2023/12/05 12:32:29;;;;;;;21.00;13.70;;;;;;;;;;5054375;28;20437;-84
2023/12/05 12:34:55;;;;;;;26.70;18.10;;;;;;;;;;5045531;28;20499;-83
2023/12/05 12:37:22;;;;;;;32.03;21.33;;;;;;;;;;5033416;28;20460;-84
2023/12/05 12:39:50;;;;;;;26.77;18.67;;;;;;;;;;5033727;28;20987;-84
2023/12/05 12:42:17;;;;;;;28.67;19.90;;;;;;;;;;5034640;28;20472;-83
2023/12/05 12:44:43;;;;;;;30.27;19.47;;;;;;;;;;5034745;28;20534;-84
2023/12/05 12:47:09;;;;;;;27.23;17.33;;;;;;;;;;5034666;28;20486;-83
2023/12/05 12:49:35;;;;;;;32.13;19.60;;;;;;;;;;5032543;28;20429;-84
2023/12/05 12:52:01;;;;;;;31.90;20.53;;;;;;;;;;4994804;28;20539;-83
2023/12/05 12:54:27;;;;;;;30.70;19.13;;;;;;;;;;5035293;28;20427;-83
2023/12/05 12:56:54;;;;;;;30.50;18.40;;;;;;;;;;5034101;28;20409;-86
2023/12/05 12:59:20;;;;;;;27.20;17.93;;;;;;;;;;5017895;28;20436;-85
2023/12/05 13:01:46;;;;;;;26.00;18.90;;;;;;;;;;5035417;28;20774;-82
2023/12/05 13:04:12;;;;;;;26.90;18.63;;;;;;;;;;5035111;28;20472;-86
2023/12/05 13:06:39;;;;;;;27.27;19.07;;;;;;;;;;5035233;28;20448;-85
2023/12/05 13:09:12;;;;;;;31.60;19.20;;;;;;;;;;5034554;28;20417;-83
2023/12/05 13:11:38;;;;;;;31.93;19.70;;;;;;;;;;5017638;28;20409;-85
2023/12/05 13:14:08;;;;;;;28.70;18.80;;;;;;;;;;5034860;28;20539;-84
2023/12/05 13:16:37;;;;;;;25.07;17.70;;;;;;;;;;5035276;28;20413;-86
2023/12/05 13:19:03;;;;;;;27.10;15.60;;;;;;;;;;5033795;28;21031;-84
2023/12/05 13:21:32;;;;;;;32.20;20.17;;;;;;;;;;5034444;28;20508;-87
2023/12/05 13:24:07;;;;;;;24.00;19.13;;;;;;;;;;5034606;28;20536;-85
2023/12/05 13:26:33;;;;;;;26.00;17.43;;;;;;;;;;5035325;28;20409;-88
2023/12/05 13:28:59;;;;;;;30.47;19.20;;;;;;;;;;5035014;28;20410;-85
2023/12/05 13:31:26;;;;;;;25.13;18.67;;;;;;;;;;5034584;28;20823;-85
2023/12/05 13:33:52;;;;;;;31.63;19.53;;;;;;;;;;5036555;28;20413;-87
2023/12/05 13:36:18;;;;;;;29.00;19.73;;;;;;;;;;5017291;28;20740;-87
2023/12/05 13:38:44;;;;;;;26.33;18.73;;;;;;;;;;5034094;28;20917;-87
2023/12/05 13:41:10;;;;;;;28.80;20.20;;;;;;;;;;5016035;28;20413;-87
2023/12/05 13:43:36;;;;;;;22.63;14.97;;;;;;;;;;5034957;28;20466;-86
2023/12/05 13:46:03;;;;;;;19.50;14.97;;;;;;;;;;5016958;28;20413;-83
2023/12/05 13:48:29;;;;;;;23.47;15.93;;;;;;;;;;5034619;28;20413;-84
2023/12/05 13:50:55;;;;;;;26.93;18.70;;;;;;;;;;5034568;28;20423;-84
2023/12/05 13:53:23;;;;;;;26.40;19.40;;;;;;;;;;5034452;28;20429;-84
2023/12/05 13:55:49;;;;;;;27.10;20.17;;;;;;;;;;5033964;28;20413;-86
2023/12/05 13:58:15;;;;;;;26.87;18.67;;;;;;;;;;4993363;28;21398;-79
2023/12/05 14:00:41;;;;;;;31.03;20.47;;;;;;;;;;5034288;28;20434;-82
2023/12/05 14:03:07;;;;;;;34.70;19.83;;;;;;;;;;5034320;28;20431;-84
2023/12/05 14:05:33;;;;;;;28.30;20.03;;;;;;;;;;5034258;28;20403;-84
2023/12/05 14:07:59;;;;;;;29.77;19.43;;;;;;;;;;5034298;28;20440;-79
2023/12/05 14:10:26;;;;;;;29.57;20.40;;;;;;;;;;5033971;28;20755;-83
2023/12/05 14:12:52;;;;;;;30.00;19.23;;;;;;;;;;5034195;28;20509;-82
2023/12/05 14:15:18;;;;;;;24.73;18.13;;;;;;;;;;5034109;28;20988;-85
2023/12/05 14:17:44;;;;;;;32.67;19.00;;;;;;;;;;5033830;28;20417;-85